Time;durP1;ratioP1;P1;durP2;ratioP2;P2;SDS_P1;SDS_P2;PMS_P1;PMS_P2;Temp;Humidity;BMP_temperature;BMP_pressure;BME280_temperature;BME280_humidity;BME280_pressure;Samples;Min_cycle;Max_cycle;Signal;HPM_P1;HPM_P2
2022/03/10 00:01:51;;;;;;;33.53;18.98;;;3.20;99.90;;;;;;5054466;28;20205;-46
2022/03/10 00:04:19;;;;;;;27.50;18.27;;;3.10;99.90;;;;;;5055932;28;20231;-46
2022/03/10 00:06:47;;;;;;;31.15;16.95;;;3.10;99.90;;;;;;5054566;28;20206;-45
2022/03/10 00:09:14;;;;;;;27.55;17.58;;;3.20;99.90;;;;;;5055384;28;20529;-46
2022/03/10 00:11:41;;;;;;;38.90;21.23;;;3.10;99.90;;;;;;5053135;28;20236;-46
2022/03/10 00:14:10;;;;;;;27.00;17.50;;;2.90;99.90;;;;;;5054784;28;20202;-47
2022/03/10 00:16:38;;;;;;;32.33;15.27;;;2.80;99.90;;;;;;5050173;28;20302;-45
2022/03/10 00:19:05;;;;;;;22.80;16.73;;;2.90;99.90;;;;;;5055079;28;20592;-43
2022/03/10 00:21:33;;;;;;;39.38;16.30;;;2.90;99.90;;;;;;5050306;28;20287;-46
2022/03/10 00:24:00;;;;;;;29.70;17.15;;;2.70;99.90;;;;;;5052115;28;20540;-48
2022/03/10 00:26:28;;;;;;;26.27;17.38;;;2.70;99.90;;;;;;5061264;28;20220;-45
2022/03/10 00:28:55;;;;;;;28.25;16.35;;;2.70;99.90;;;;;;5062009;28;20221;-50
2022/03/10 00:31:22;;;;;;;29.00;17.27;;;2.50;99.90;;;;;;5058619;28;20236;-43
2022/03/10 00:33:49;;;;;;;25.55;16.60;;;2.50;99.90;;;;;;5050684;28;20220;-46
2022/03/10 00:36:17;;;;;;;30.30;17.42;;;2.70;99.90;;;;;;5056078;28;20204;-47
2022/03/10 00:38:44;;;;;;;35.88;18.70;;;2.80;99.90;;;;;;5055370;28;20440;-44
2022/03/10 00:41:12;;;;;;;38.47;18.25;;;3.00;99.90;;;;;;5041791;28;20565;-46
2022/03/10 00:43:39;;;;;;;35.22;19.23;;;2.90;99.90;;;;;;5050051;28;20226;-47
2022/03/10 00:46:06;;;;;;;32.10;17.85;;;3.00;99.90;;;;;;5041742;28;20394;-46
2022/03/10 00:48:34;;;;;;;27.00;17.38;;;3.10;99.90;;;;;;5041206;28;20263;-47
2022/03/10 00:51:01;;;;;;;28.27;16.23;;;3.10;99.90;;;;;;5041371;28;20224;-43
2022/03/10 00:53:28;;;;;;;32.38;18.85;;;3.00;99.90;;;;;;5041062;28;20333;-48
2022/03/10 00:55:55;;;;;;;30.48;16.98;;;2.50;99.90;;;;;;5041135;28;20197;-46
2022/03/10 00:58:23;;;;;;;26.58;16.48;;;2.60;99.90;;;;;;5041080;28;20246;-46
2022/03/10 01:00:53;;;;;;;31.33;17.17;;;2.50;99.90;;;;;;5040900;28;20203;-49
2022/03/10 01:03:21;;;;;;;30.63;18.38;;;2.40;99.90;;;;;;5041820;28;20259;-46
2022/03/10 01:05:49;;;;;;;30.20;18.38;;;2.50;99.90;;;;;;5040567;28;20442;-48
2022/03/10 01:08:17;;;;;;;30.65;17.17;;;2.30;99.90;;;;;;5041128;28;20213;-44
2022/03/10 01:10:44;;;;;;;35.92;19.75;;;2.30;99.90;;;;;;5041204;28;20220;-45
2022/03/10 01:13:13;;;;;;;37.05;21.88;;;2.30;99.90;;;;;;5041239;28;20224;-46
2022/03/10 01:15:41;;;;;;;28.52;19.85;;;2.20;99.90;;;;;;5041359;28;20219;-45
2022/03/10 01:18:09;;;;;;;33.28;19.63;;;2.20;99.90;;;;;;5041106;28;20646;-45
2022/03/10 01:20:36;;;;;;;43.50;20.48;;;2.20;99.90;;;;;;5041003;28;20431;-44
2022/03/10 01:23:03;;;;;;;31.60;19.15;;;2.30;99.90;;;;;;5040567;28;20220;-47
2022/03/10 01:25:31;;;;;;;37.50;22.33;;;2.40;99.90;;;;;;5041051;28;20427;-44
2022/03/10 01:27:58;;;;;;;30.33;19.48;;;2.50;99.90;;;;;;5041065;28;20201;-43
2022/03/10 01:30:25;;;;;;;33.45;18.58;;;2.50;99.90;;;;;;5040861;28;20248;-48
2022/03/10 01:32:53;;;;;;;35.53;20.98;;;2.30;99.90;;;;;;5040864;28;20217;-46
2022/03/10 01:35:20;;;;;;;36.05;19.90;;;2.30;99.90;;;;;;5040992;28;20254;-44
2022/03/10 01:37:47;;;;;;;32.55;19.98;;;2.50;99.90;;;;;;5041146;28;20198;-45
2022/03/10 01:40:17;;;;;;;36.67;20.15;;;2.40;99.90;;;;;;5040669;28;20243;-44
2022/03/10 01:42:44;;;;;;;31.35;19.17;;;2.60;99.90;;;;;;5040953;28;20262;-45
2022/03/10 01:45:12;;;;;;;34.80;21.50;;;2.70;99.90;;;;;;5040709;28;20243;-46
2022/03/10 01:47:40;;;;;;;32.38;19.85;;;2.70;99.90;;;;;;5041075;28;20230;-43
2022/03/10 01:50:10;;;;;;;37.75;19.52;;;2.60;99.90;;;;;;5041090;28;20212;-44
2022/03/10 01:52:38;;;;;;;30.45;17.42;;;2.50;99.90;;;;;;5041100;28;20581;-44
2022/03/10 01:55:06;;;;;;;39.80;21.80;;;2.60;99.90;;;;;;5040954;28;20394;-44
2022/03/10 01:57:34;;;;;;;28.55;20.05;;;2.70;99.90;;;;;;5040531;28;20209;-45
2022/03/10 02:00:02;;;;;;;40.38;22.27;;;2.80;99.90;;;;;;5040556;28;20206;-42
2022/03/10 02:02:29;;;;;;;45.85;22.35;;;3.00;99.90;;;;;;5040421;28;20467;-45
2022/03/10 02:04:57;;;;;;;44.78;23.05;;;3.10;99.90;;;;;;5040622;28;20199;-45
2022/03/10 02:10:16;;;;;;;40.40;23.35;;;3.30;99.90;;;;;;5040650;28;20527;-45
2022/03/10 02:12:49;;;;;;;31.83;19.17;;;3.30;99.90;;;;;;5040582;28;20230;-47
2022/03/10 02:18:16;;;;;;;41.67;22.55;;;3.40;99.90;;;;;;5040959;28;20548;-43
2022/03/10 02:20:44;;;;;;;34.38;19.90;;;3.40;99.90;;;;;;5041104;28;20365;-45
2022/03/10 02:23:14;;;;;;;31.75;20.20;;;3.30;99.90;;;;;;5040859;28;20222;-44
2022/03/10 02:25:42;;;;;;;38.83;20.88;;;3.40;99.90;;;;;;5040443;28;20199;-48
2022/03/10 02:28:09;;;;;;;32.38;19.20;;;3.50;99.90;;;;;;5040518;28;20203;-44
2022/03/10 02:30:36;;;;;;;36.33;20.08;;;3.50;99.90;;;;;;5039991;28;20390;-45
2022/03/10 02:33:05;;;;;;;35.20;20.20;;;3.50;99.90;;;;;;5040073;28;20273;-45
2022/03/10 02:35:32;;;;;;;38.58;21.67;;;3.60;99.90;;;;;;5038926;28;20202;-45
2022/03/10 02:38:00;;;;;;;38.40;19.05;;;3.60;99.90;;;;;;5040511;28;20424;-45
2022/03/10 02:40:27;;;;;;;31.70;20.02;;;3.70;99.90;;;;;;5040209;28;20239;-43
2022/03/10 02:42:55;;;;;;;34.60;20.45;;;3.70;99.90;;;;;;5040390;28;20222;-44
2022/03/10 02:45:24;;;;;;;26.55;18.90;;;3.70;99.90;;;;;;5040107;28;20202;-44
2022/03/10 02:47:51;;;;;;;34.47;22.05;;;3.70;99.90;;;;;;5040008;28;20202;-46
2022/03/10 02:50:18;;;;;;;38.65;19.77;;;3.80;99.90;;;;;;5038994;28;20292;-43
2022/03/10 02:52:46;;;;;;;35.42;20.48;;;3.70;99.90;;;;;;5039692;28;20223;-41
2022/03/10 02:55:13;;;;;;;37.03;20.70;;;3.80;99.90;;;;;;5040404;28;20222;-45
2022/03/10 02:57:40;;;;;;;31.00;19.58;;;3.90;99.90;;;;;;5039807;28;20290;-46
2022/03/10 03:00:09;;;;;;;22.15;14.40;;;3.80;99.90;;;;;;5039974;28;20253;-47
2022/03/10 03:02:36;;;;;;;29.60;19.35;;;3.80;99.90;;;;;;5039504;28;20254;-49
2022/03/10 03:05:05;;;;;;;30.45;20.00;;;3.70;99.90;;;;;;5040091;28;20195;-47
2022/03/10 03:07:33;;;;;;;26.67;18.05;;;3.70;99.90;;;;;;5039870;28;20203;-46
2022/03/10 03:10:01;;;;;;;48.28;23.20;;;3.80;99.90;;;;;;5039821;28;20460;-46
2022/03/10 03:12:29;;;;;;;32.33;19.23;;;3.70;99.90;;;;;;5039627;28;20239;-46
2022/03/10 03:14:56;;;;;;;30.52;20.65;;;3.70;99.90;;;;;;5039485;28;20198;-44
2022/03/10 03:17:24;;;;;;;30.27;18.02;;;3.60;99.90;;;;;;5040262;28;20211;-48
2022/03/10 03:19:53;;;;;;;26.48;16.75;;;3.70;99.90;;;;;;5039519;28;20198;-43
2022/03/10 03:22:20;;;;;;;31.13;18.83;;;3.70;99.90;;;;;;5040017;28;20222;-45
2022/03/10 03:24:47;;;;;;;30.80;18.48;;;3.70;99.90;;;;;;5039575;28;20249;-50
2022/03/10 03:27:14;;;;;;;42.08;19.08;;;3.60;99.90;;;;;;5040014;28;20440;-44
2022/03/10 03:29:41;;;;;;;31.13;17.55;;;3.40;99.90;;;;;;5039640;28;20211;-49
2022/03/10 03:32:09;;;;;;;27.45;15.73;;;3.40;99.90;;;;;;5047602;28;20237;-44
2022/03/10 03:34:36;;;;;;;26.92;17.13;;;3.40;99.90;;;;;;5039877;28;20509;-44
2022/03/10 03:37:03;;;;;;;32.05;19.55;;;3.30;99.90;;;;;;5039177;28;20237;-45
2022/03/10 03:39:30;;;;;;;30.20;18.02;;;3.30;99.90;;;;;;5039753;28;20508;-48
2022/03/10 03:41:58;;;;;;;26.55;16.15;;;3.20;99.90;;;;;;5039298;28;20305;-51
2022/03/10 03:44:25;;;;;;;22.98;16.17;;;3.20;99.90;;;;;;5039921;28;20460;-49
2022/03/10 03:46:52;;;;;;;27.70;16.88;;;3.20;99.90;;;;;;5040491;28;20444;-45
2022/03/10 03:49:20;;;;;;;23.63;15.57;;;3.20;99.90;;;;;;5043235;28;20215;-45
2022/03/10 03:51:48;;;;;;;30.55;17.10;;;3.20;99.90;;;;;;5050439;23;20402;-81
2022/03/10 03:54:15;;;;;;;26.80;15.50;;;3.00;99.90;;;;;;5047244;28;20415;-85
2022/03/10 03:56:42;;;;;;;25.15;17.38;;;2.90;99.90;;;;;;5046547;28;20392;-83
2022/03/10 03:59:11;;;;;;;25.10;15.57;;;3.00;99.90;;;;;;5046039;28;20198;-83
2022/03/10 04:01:38;;;;;;;26.17;16.17;;;3.00;99.90;;;;;;5047050;28;20205;-82
2022/03/10 04:04:06;;;;;;;23.05;16.42;;;2.90;99.90;;;;;;5045578;28;20209;-81
2022/03/10 04:06:34;;;;;;;27.05;15.07;;;3.00;99.90;;;;;;5046420;28;20204;-82
2022/03/10 04:09:01;;;;;;;26.83;18.30;;;2.90;99.90;;;;;;5046058;28;20205;-83
2022/03/10 04:11:29;;;;;;;28.08;17.02;;;2.70;99.90;;;;;;5045997;28;20229;-84
2022/03/10 04:13:57;;;;;;;24.48;13.85;;;2.70;99.90;;;;;;5045025;28;20391;-84
2022/03/10 04:16:24;;;;;;;18.48;14.40;;;2.90;99.90;;;;;;5047624;28;20195;-84
2022/03/10 04:18:54;;;;;;;21.83;16.40;;;2.70;99.90;;;;;;5046810;28;20228;-85
2022/03/10 04:21:21;;;;;;;18.67;14.70;;;2.70;99.90;;;;;;5045463;28;20544;-85
2022/03/10 04:23:49;;;;;;;16.92;13.15;;;2.70;99.90;;;;;;5045118;28;20194;-86
2022/03/10 04:26:18;;;;;;;21.00;13.32;;;2.70;99.90;;;;;;5045343;28;20233;-86
2022/03/10 04:28:47;;;;;;;15.95;11.65;;;2.70;99.90;;;;;;5046467;28;20503;-85
2022/03/10 04:31:14;;;;;;;23.52;15.45;;;2.70;99.90;;;;;;5045259;28;20205;-82
2022/03/10 04:33:43;;;;;;;19.92;12.02;;;2.50;99.90;;;;;;5046099;28;20201;-83
2022/03/10 04:36:11;;;;;;;15.15;10.40;;;2.60;99.90;;;;;;5044890;28;20201;-82
2022/03/10 04:38:39;;;;;;;18.48;12.45;;;2.50;99.90;;;;;;5045363;28;20504;-84
2022/03/10 04:41:06;;;;;;;15.43;12.10;;;2.50;99.90;;;;;;5044381;28;20196;-83
2022/03/10 04:43:33;;;;;;;17.13;12.38;;;2.50;99.90;;;;;;5044696;28;20198;-83
2022/03/10 04:46:00;;;;;;;16.17;9.48;;;2.40;99.90;;;;;;5045665;28;20189;-82
2022/03/10 04:48:28;;;;;;;16.15;12.15;;;2.30;99.90;;;;;;5045118;28;20189;-84
2022/03/10 04:50:56;;;;;;;17.20;11.30;;;2.30;99.90;;;;;;5044763;28;20217;-84
2022/03/10 04:53:26;;;;;;;21.33;11.95;;;2.30;99.90;;;;;;5044230;28;20221;-82
2022/03/10 04:55:54;;;;;;;16.90;10.50;;;2.20;99.90;;;;;;5044425;28;20193;-81
2022/03/10 04:58:21;;;;;;;17.35;11.80;;;2.20;99.90;;;;;;5043997;28;20257;-83
2022/03/10 05:00:48;;;;;;;13.50;10.43;;;2.20;99.90;;;;;;5045712;28;20383;-82
2022/03/10 05:03:15;;;;;;;12.25;9.50;;;2.20;99.90;;;;;;5045311;28;20239;-82
2022/03/10 05:05:43;;;;;;;14.63;10.45;;;2.20;99.90;;;;;;5044424;28;20534;-84
2022/03/10 05:08:10;;;;;;;13.48;9.10;;;2.00;99.90;;;;;;5043448;28;20201;-84
2022/03/10 05:10:37;;;;;;;13.95;11.13;;;2.10;99.90;;;;;;5044417;28;20200;-83
2022/03/10 05:13:05;;;;;;;17.13;10.85;;;1.90;99.90;;;;;;5044611;28;20258;-85
2022/03/10 05:15:33;;;;;;;16.83;9.35;;;1.90;99.90;;;;;;5044395;28;20198;-84
2022/03/10 05:18:02;;;;;;;15.15;9.68;;;2.00;99.90;;;;;;5044943;28;20254;-86
2022/03/10 05:20:31;;;;;;;12.38;8.40;;;2.00;99.90;;;;;;5046112;28;20219;-83
2022/03/10 05:23:01;;;;;;;14.63;10.13;;;2.00;99.90;;;;;;5045223;28;20204;-82
2022/03/10 05:25:51;;;;;;;13.13;9.25;;;1.90;99.90;;;;;;5040027;28;20191;-81
2022/03/10 05:28:19;;;;;;;16.05;11.50;;;2.00;99.90;;;;;;5040828;28;20201;-85
2022/03/10 05:30:48;;;;;;;13.07;9.32;;;2.00;99.90;;;;;;5061572;28;20355;-83
2022/03/10 05:33:15;;;;;;;16.20;10.95;;;2.10;99.90;;;;;;5063852;28;20216;-84
2022/03/10 05:35:43;;;;;;;18.65;11.02;;;2.10;99.90;;;;;;5063800;28;20191;-84
2022/03/10 05:38:11;;;;;;;13.27;9.73;;;2.10;99.90;;;;;;5065447;28;20362;-84
2022/03/10 05:40:40;;;;;;;12.27;8.90;;;2.20;99.90;;;;;;5063751;28;20489;-84
2022/03/10 05:43:09;;;;;;;15.30;9.25;;;2.20;99.90;;;;;;5063765;28;20271;-82
2022/03/10 05:45:36;;;;;;;15.52;10.30;;;2.20;99.90;;;;;;5064859;28;20204;-83
2022/03/10 05:48:04;;;;;;;15.23;9.05;;;2.20;99.90;;;;;;5066205;28;20184;-83
2022/03/10 05:50:31;;;;;;;13.70;8.10;;;2.30;99.90;;;;;;5064080;28;20202;-82
2022/03/10 05:52:58;;;;;;;15.68;10.18;;;2.30;99.90;;;;;;5065144;28;20217;-84
2022/03/10 05:55:26;;;;;;;12.43;9.10;;;2.30;99.90;;;;;;5064296;28;20192;-87
2022/03/10 05:57:54;;;;;;;12.70;9.10;;;2.20;99.90;;;;;;5046765;28;20378;-85
2022/03/10 06:00:23;;;;;;;13.50;7.35;;;2.30;99.90;;;;;;5061303;28;20211;-85
2022/03/10 06:02:51;;;;;;;11.05;7.45;;;2.40;99.90;;;;;;5054084;28;20359;-87
2022/03/10 06:05:18;;;;;;;9.60;7.22;;;2.50;99.90;;;;;;5065605;28;20208;-86
2022/03/10 06:07:48;;;;;;;13.95;9.05;;;2.40;99.90;;;;;;5048584;28;20207;-86
2022/03/10 06:10:16;;;;;;;13.73;10.13;;;2.40;99.90;;;;;;5056353;28;20343;-83
2022/03/10 06:12:44;;;;;;;11.75;8.27;;;2.30;99.90;;;;;;5056563;28;20212;-86
2022/03/10 06:15:11;;;;;;;14.90;9.02;;;2.30;99.90;;;;;;5043377;28;20205;-85
2022/03/10 06:17:40;;;;;;;13.70;7.75;;;2.30;99.90;;;;;;5043592;28;20200;-83
2022/03/10 06:20:08;;;;;;;18.90;9.63;;;2.40;99.90;;;;;;5047549;28;20193;-84
2022/03/10 06:22:36;;;;;;;12.73;8.60;;;2.40;99.90;;;;;;5061356;28;20200;-84
2022/03/10 06:25:05;;;;;;;14.27;8.68;;;2.50;99.90;;;;;;5059305;28;20197;-86
2022/03/10 06:27:32;;;;;;;12.48;7.05;;;2.80;99.90;;;;;;5043057;28;20207;-84
2022/03/10 06:29:59;;;;;;;13.88;9.80;;;3.40;99.90;;;;;;5062677;28;20194;-84
2022/03/10 06:32:27;;;;;;;12.57;9.18;;;4.10;99.90;;;;;;5062571;28;20285;-85
2022/03/10 06:34:57;;;;;;;13.77;8.00;;;4.60;99.90;;;;;;5063035;28;20500;-85
2022/03/10 06:37:24;;;;;;;12.30;8.80;;;4.90;99.90;;;;;;5058342;28;20209;-84
2022/03/10 06:39:55;;;;;;;15.20;9.07;;;4.70;99.90;;;;;;5043338;28;20200;-87
2022/03/10 06:42:22;;;;;;;13.50;8.32;;;4.60;99.90;;;;;;5043611;28;20202;-84
2022/03/10 06:44:49;;;;;;;12.18;7.90;;;4.30;99.90;;;;;;5039683;28;20200;-86
2022/03/10 06:47:17;;;;;;;16.45;9.38;;;4.10;99.90;;;;;;5057071;28;20269;-85
2022/03/10 06:49:44;;;;;;;11.95;8.27;;;3.80;99.90;;;;;;5065032;28;20197;-85
2022/03/10 06:52:12;;;;;;;10.20;7.80;;;3.70;99.90;;;;;;5052583;28;20235;-84
2022/03/10 06:54:40;;;;;;;9.73;6.85;;;3.50;99.90;;;;;;5045087;28;20223;-86
2022/03/10 06:57:08;;;;;;;13.48;8.05;;;3.40;99.90;;;;;;5064022;28;20214;-83
2022/03/10 06:59:35;;;;;;;16.08;8.27;;;3.60;99.90;;;;;;5063912;28;20198;-87
2022/03/10 07:02:07;;;;;;;10.80;7.57;;;4.10;99.90;;;;;;5059886;28;20279;-85
2022/03/10 07:04:35;;;;;;;12.85;7.97;;;4.50;99.90;;;;;;5063644;28;20225;-84
2022/03/10 07:07:02;;;;;;;14.48;7.97;;;5.00;99.90;;;;;;5062463;28;20519;-86
2022/03/10 07:09:30;;;;;;;11.70;7.75;;;5.20;99.90;;;;;;5062596;28;20200;-86
2022/03/10 07:11:58;;;;;;;8.88;6.00;;;5.40;99.90;;;;;;5063732;28;20447;-88
2022/03/10 07:14:26;;;;;;;11.43;7.18;;;5.00;99.90;;;;;;5063045;28;20191;-88
2022/03/10 07:17:00;;;;;;;9.32;7.55;;;5.10;99.90;;;;;;5062610;28;20377;-85
2022/03/10 07:19:27;;;;;;;8.18;6.18;;;5.40;99.90;;;;;;5064024;28;20196;-86
2022/03/10 07:21:54;;;;;;;9.00;7.30;;;5.50;99.90;;;;;;5065161;28;20203;-83
2022/03/10 07:24:22;;;;;;;9.32;7.10;;;5.30;99.90;;;;;;5066448;28;20504;-83
2022/03/10 07:26:55;;;;;;;8.40;6.63;;;5.00;99.90;;;;;;5066961;28;20202;-83
2022/03/10 07:29:24;;;;;;;7.80;7.00;;;5.40;99.90;;;;;;5067111;28;20410;-85
2022/03/10 07:31:52;;;;;;;8.70;6.75;;;5.40;99.90;;;;;;5067558;28;20551;-87
2022/03/10 07:34:19;;;;;;;6.70;4.72;;;5.50;99.90;;;;;;5067467;28;20187;-85
2022/03/10 07:36:46;;;;;;;5.55;4.90;;;6.00;99.90;;;;;;5067451;28;20223;-86
2022/03/10 07:39:14;;;;;;;7.63;5.20;;;5.90;99.90;;;;;;5045759;28;20219;-84
2022/03/10 07:41:41;;;;;;;5.72;4.72;;;6.20;99.90;;;;;;5048303;28;20200;-83
2022/03/10 07:44:09;;;;;;;6.10;5.20;;;6.50;99.90;;;;;;5054028;28;20200;-83
2022/03/10 07:46:36;;;;;;;3.90;3.50;;;6.90;99.90;;;;;;5046838;28;20206;-87
2022/03/10 07:49:04;;;;;;;8.40;5.13;;;7.10;99.90;;;;;;5046582;28;20196;-89
2022/03/10 07:51:33;;;;;;;6.10;5.45;;;6.90;99.90;;;;;;5046231;28;20244;-85
2022/03/10 07:54:02;;;;;;;5.10;4.60;;;6.90;99.90;;;;;;5047517;28;20212;-87
2022/03/10 07:56:29;;;;;;;7.53;5.40;;;6.90;99.90;;;;;;5046253;28;20267;-88
2022/03/10 07:58:57;;;;;;;7.63;5.88;;;7.30;99.90;;;;;;5060827;28;20200;-87
2022/03/10 08:01:24;;;;;;;5.40;4.20;;;8.70;99.90;;;;;;5067662;28;20202;-90
2022/03/10 08:03:52;;;;;;;8.57;5.13;;;9.70;99.90;;;;;;5066206;28;20483;-91
2022/03/10 08:06:21;;;;;;;7.70;5.75;;;9.70;99.90;;;;;;5065559;28;20269;-88
2022/03/10 08:08:49;;;;;;;9.32;4.85;;;10.10;99.90;;;;;;5069016;28;20190;-87
2022/03/10 08:11:50;;;;;;;6.55;4.03;;;9.60;99.90;;;;;;5051143;28;20199;-88
2022/03/10 08:14:18;;;;;;;6.22;4.53;;;8.90;99.90;;;;;;5049218;28;20229;-88
2022/03/10 08:16:45;;;;;;;6.90;3.95;;;8.90;99.90;;;;;;5049199;28;20195;-87
2022/03/10 08:19:12;;;;;;;6.25;4.82;;;8.80;99.90;;;;;;5045975;28;20229;-84
2022/03/10 08:21:40;;;;;;;6.50;4.88;;;9.30;99.90;;;;;;5044840;28;20412;-84
2022/03/10 08:24:07;;;;;;;7.43;5.10;;;9.30;99.90;;;;;;5044954;28;20198;-86
2022/03/10 08:26:35;;;;;;;6.95;6.25;;;9.30;99.90;;;;;;5045023;28;20500;-88
2022/03/10 08:29:03;;;;;;;6.68;5.70;;;9.60;99.90;;;;;;5046664;28;20523;-84
2022/03/10 08:31:30;;;;;;;9.50;5.90;;;9.70;99.90;;;;;;5046472;28;20202;-85
2022/03/10 08:33:57;;;;;;;6.22;4.70;;;8.50;99.90;;;;;;5046348;28;20223;-92
2022/03/10 08:36:25;;;;;;;8.20;5.35;;;8.60;99.90;;;;;;5046351;28;20201;-87
2022/03/10 08:38:52;;;;;;;5.40;4.55;;;8.00;99.90;;;;;;5052823;28;20387;-90
2022/03/10 08:41:32;;;;;;;8.07;5.22;;;8.20;99.90;;;;;;5047095;28;20506;-91
2022/03/10 08:44:00;;;;;;;6.43;4.78;;;7.90;99.90;;;;;;5047229;28;20212;-87
2022/03/10 08:46:27;;;;;;;7.65;4.93;;;7.80;99.90;;;;;;5046957;28;20243;-83
2022/03/10 08:48:54;;;;;;;8.18;4.03;;;8.00;99.90;;;;;;5045535;28;20391;-88
2022/03/10 08:51:22;;;;;;;5.65;4.05;;;7.80;99.90;;;;;;5059435;28;20279;-88
2022/03/10 08:53:53;;;;;;;5.82;4.63;;;7.60;99.90;;;;;;5066247;28;20223;-89
2022/03/10 08:56:20;;;;;;;7.63;5.88;;;8.00;99.90;;;;;;5066182;28;20234;-89
2022/03/10 08:58:48;;;;;;;4.55;4.15;;;7.90;99.90;;;;;;5066575;28;20188;-87
2022/03/10 09:01:15;;;;;;;4.63;4.13;;;7.30;99.90;;;;;;5067574;28;20188;-88
2022/03/10 09:03:50;;;;;;;3.70;3.38;;;7.30;99.90;;;;;;5067890;28;20199;-87
2022/03/10 09:06:18;;;;;;;6.72;5.30;;;7.60;99.90;;;;;;5065825;28;20195;-85
2022/03/10 09:08:46;;;;;;;7.18;4.90;;;8.30;99.90;;;;;;5048365;28;20265;-88
2022/03/10 09:11:13;;;;;;;6.38;4.65;;;8.70;99.90;;;;;;5046454;28;20262;-87
2022/03/10 09:13:44;;;;;;;5.68;4.40;;;8.50;99.10;;;;;;5063916;28;20229;-92
2022/03/10 09:16:11;;;;;;;7.75;5.40;;;8.20;99.90;;;;;;5045329;28;20202;-87
2022/03/10 09:18:39;;;;;;;10.57;5.55;;;8.40;99.90;;;;;;5068499;28;20194;-89
2022/03/10 09:21:07;;;;;;;6.47;5.45;;;8.80;99.80;;;;;;5032436;28;20194;-88
2022/03/10 09:23:42;;;;;;;5.57;4.10;;;8.50;99.90;;;;;;5057338;28;20220;-90
2022/03/10 09:26:10;;;;;;;6.63;4.93;;;7.50;99.90;;;;;;5046081;28;20208;-88
2022/03/10 09:28:37;;;;;;;4.93;4.25;;;7.40;99.90;;;;;;5060146;28;20323;-89
2022/03/10 09:31:04;;;;;;;5.55;4.32;;;7.50;99.90;;;;;;5049010;28;20204;-85
2022/03/10 09:33:32;;;;;;;4.55;3.85;;;7.70;98.80;;;;;;5060604;28;20503;-87
2022/03/10 09:36:00;;;;;;;4.47;3.95;;;7.10;99.20;;;;;;5046800;28;20271;-87
2022/03/10 09:38:28;;;;;;;5.55;3.67;;;6.60;99.60;;;;;;5062082;28;20191;-88
2022/03/10 09:40:56;;;;;;;4.70;4.28;;;6.00;99.90;;;;;;5062587;28;20208;-88
2022/03/10 09:43:28;;;;;;;4.57;3.25;;;5.50;99.90;;;;;;5051713;28;20232;-85
2022/03/10 09:45:56;;;;;;;7.00;3.55;;;5.30;99.90;;;;;;5053190;28;20220;-89
2022/03/10 09:48:25;;;;;;;4.85;3.60;;;5.40;99.90;;;;;;5065780;28;20447;-84
2022/03/10 09:50:52;;;;;;;3.25;2.95;;;5.40;99.90;;;;;;5050550;28;20405;-86
2022/03/10 09:53:26;;;;;;;6.78;4.07;;;5.10;99.90;;;;;;5040056;28;20204;-89
2022/03/10 09:55:54;;;;;;;6.10;4.00;;;5.00;99.90;;;;;;5059235;28;20198;-90
2022/03/10 09:58:22;;;;;;;6.85;4.40;;;5.00;99.90;;;;;;5050212;28;20545;-92
2022/03/10 10:00:50;;;;;;;7.25;3.45;;;4.90;99.90;;;;;;5054993;28;20200;-86
2022/03/10 10:03:18;;;;;;;3.58;3.25;;;4.80;99.90;;;;;;5040496;28;20216;-88
2022/03/10 10:05:46;;;;;;;6.25;2.78;;;4.70;99.20;;;;;;5047326;28;20235;-87
2022/03/10 10:08:17;;;;;;;2.97;2.65;;;4.60;99.50;;;;;;5046198;28;20219;-86
2022/03/10 10:10:50;;;;;;;2.92;2.72;;;4.60;98.50;;;;;;5045875;28;20505;-88
2022/03/10 10:13:34;;;;;;;5.43;3.20;;;4.50;98.40;;;;;;5045494;28;20227;-91
2022/03/10 10:16:07;;;;;;;6.85;4.05;;;4.60;98.00;;;;;;5046076;28;20257;-86
2022/03/10 10:18:35;;;;;;;5.07;3.00;;;4.70;98.40;;;;;;5045323;28;20433;-87
2022/03/10 10:21:18;;;;;;;4.03;2.92;;;4.70;99.30;;;;;;5044666;28;20200;-90
2022/03/10 10:23:47;;;;;;;4.03;3.63;;;4.70;99.90;;;;;;5045218;28;20192;-91
2022/03/10 10:26:14;;;;;;;5.85;3.67;;;4.80;99.30;;;;;;5046276;28;20370;-92
2022/03/10 10:28:48;;;;;;;4.50;3.50;;;4.90;99.60;;;;;;5045345;28;20211;-85
2022/03/10 10:31:21;;;;;;;4.25;3.30;;;4.90;99.90;;;;;;5047527;28;20199;-90
2022/03/10 10:34:09;;;;;;;5.43;3.00;;;5.00;99.60;;;;;;5045505;28;20554;-84
2022/03/10 10:36:38;;;;;;;6.50;4.00;;;4.90;99.50;;;;;;5024119;28;20267;-88
2022/03/10 10:39:14;;;;;;;2.83;2.55;;;4.80;99.90;;;;;;5024286;28;20196;-88
2022/03/10 10:41:45;;;;;;;6.00;4.10;;;4.60;99.90;;;;;;5025749;28;20306;-86
2022/03/10 10:44:18;;;;;;;5.15;3.55;;;4.70;99.60;;;;;;5024695;28;20464;-86
2022/03/10 10:46:59;;;;;;;8.43;4.22;;;4.90;98.90;;;;;;5024334;28;20193;-85
2022/03/10 10:49:27;;;;;;;5.38;3.53;;;4.70;99.00;;;;;;5025218;28;20201;-90
2022/03/10 10:51:57;;;;;;;6.47;3.55;;;4.70;97.90;;;;;;5022336;28;20207;-88
2022/03/10 10:54:27;;;;;;;9.40;3.90;;;4.80;98.10;;;;;;5024591;28;20228;-89
2022/03/10 10:57:01;;;;;;;3.10;2.88;;;5.00;97.80;;;;;;5025257;28;20197;-89
2022/03/10 10:59:28;;;;;;;5.68;4.20;;;5.00;96.90;;;;;;5026284;28;20200;-88
2022/03/10 11:02:10;;;;;;;4.70;3.35;;;5.10;97.80;;;;;;5026687;28;20258;-85
2022/03/10 11:04:41;;;;;;;4.40;3.67;;;4.90;99.00;;;;;;5028375;28;20218;-90
2022/03/10 11:07:10;;;;;;;5.18;3.00;;;4.80;99.40;;;;;;5026612;28;20508;-90
2022/03/10 11:09:39;;;;;;;4.18;3.60;;;5.10;98.80;;;;;;5026770;28;20210;-86
2022/03/10 11:12:11;;;;;;;5.45;3.75;;;5.20;98.40;;;;;;5027102;28;20192;-89
2022/03/10 11:14:38;;;;;;;5.50;4.28;;;5.20;97.90;;;;;;5027932;28;20223;-91
2022/03/10 11:17:07;;;;;;;5.05;3.80;;;5.20;99.20;;;;;;5027400;28;20254;-89
2022/03/10 11:19:50;;;;;;;4.50;4.10;;;5.10;99.90;;;;;;5029583;28;20205;-86
2022/03/10 11:22:41;;;;;;;5.57;4.03;;;5.30;97.30;;;;;;5028347;28;20223;-85
2022/03/10 11:25:37;;;;;;;5.22;4.07;;;5.10;98.30;;;;;;5027195;28;20268;-85
2022/03/10 11:28:25;;;;;;;6.55;3.47;;;5.00;98.20;;;;;;5025824;28;20185;-88
2022/03/10 11:30:55;;;;;;;3.45;2.95;;;5.10;98.20;;;;;;5027049;28;20197;-84
2022/03/10 11:33:30;;;;;;;7.30;4.82;;;5.00;98.10;;;;;;5027355;28;20538;-90
2022/03/10 11:35:58;;;;;;;8.82;4.25;;;5.10;98.40;;;;;;5027700;28;20326;-90
2022/03/10 11:39:02;;;;;;;3.65;3.33;;;5.10;96.70;;;;;;5028369;28;20433;-86
2022/03/10 11:41:44;;;;;;;5.85;3.85;;;5.10;96.90;;;;;;4995962;28;20234;-86
2022/03/10 11:44:21;;;;;;;6.00;4.30;;;5.00;99.10;;;;;;5028252;28;20211;-87
2022/03/10 11:46:57;;;;;;;5.22;4.55;;;5.00;97.80;;;;;;5028929;28;20196;-87
2022/03/10 11:49:39;;;;;;;8.68;5.40;;;5.10;99.90;;;;;;5029153;28;20200;-88
2022/03/10 11:52:25;;;;;;;5.85;4.03;;;5.20;99.90;;;;;;4975753;28;1651396;-86
2022/03/10 11:55:09;;;;;;;4.32;2.80;;;5.20;99.90;;;;;;5031613;28;20243;-86
2022/03/10 11:57:55;;;;;;;4.47;4.07;;;5.10;96.30;;;;;;5070390;28;20192;-89
2022/03/10 12:00:39;;;;;;;5.85;5.15;;;5.00;96.40;;;;;;5056972;28;20416;-89
2022/03/10 12:03:08;;;;;;;6.35;3.85;;;5.10;96.50;;;;;;5048997;28;20497;-87
2022/03/10 12:06:03;;;;;;;8.80;4.30;;;5.10;92.90;;;;;;5048518;28;20199;-89
2022/03/10 12:08:33;;;;;;;5.90;4.15;;;5.10;94.30;;;;;;5049754;28;20279;-90
2022/03/10 12:11:05;;;;;;;5.88;4.50;;;5.00;95.70;;;;;;5047925;28;20235;-90
2022/03/10 12:13:39;;;;;;;6.47;3.95;;;5.20;95.90;;;;;;5046691;28;20211;-88
2022/03/10 12:16:26;;;;;;;9.95;4.10;;;5.20;95.90;;;;;;5059801;28;20237;-84
2022/03/10 12:18:54;;;;;;;6.30;5.20;;;5.30;95.30;;;;;;5067301;28;20205;-84
2022/03/10 12:21:26;;;;;;;5.50;3.80;;;5.40;95.50;;;;;;5066059;28;20202;-89
2022/03/10 12:23:56;;;;;;;3.08;2.65;;;5.40;94.10;;;;;;5067801;28;20184;-86
2022/03/10 12:26:37;;;;;;;5.93;3.90;;;5.30;93.40;;;;;;5062760;28;20362;-87
2022/03/10 12:29:07;;;;;;;6.07;4.22;;;5.20;94.10;;;;;;5033983;28;20445;-88
2022/03/10 12:31:36;;;;;;;5.45;3.95;;;5.20;94.60;;;;;;5052970;28;20242;-87
2022/03/10 12:34:12;;;;;;;6.55;4.18;;;5.30;94.00;;;;;;5028569;28;20284;-86
2022/03/10 12:36:41;;;;;;;6.90;4.65;;;5.30;94.30;;;;;;5054751;28;20194;-83
2022/03/10 12:39:16;;;;;;;5.65;4.40;;;5.20;94.60;;;;;;5051027;28;20381;-84
2022/03/10 12:41:48;;;;;;;5.75;4.35;;;5.20;95.90;;;;;;5054360;28;20194;-86
2022/03/10 12:44:23;;;;;;;11.43;4.78;;;5.10;96.80;;;;;;5047353;28;20231;-88
2022/03/10 12:46:53;;;;;;;6.32;4.55;;;5.20;96.90;;;;;;5052212;28;20217;-90
2022/03/10 12:49:24;;;;;;;9.23;5.55;;;5.10;97.40;;;;;;5040272;28;20253;-89
2022/03/10 12:51:55;;;;;;;7.22;4.80;;;5.10;97.70;;;;;;5046783;28;20289;-88
2022/03/10 12:54:23;;;;;;;7.68;5.38;;;5.10;97.60;;;;;;5046360;28;20238;-87
2022/03/10 12:56:57;;;;;;;7.45;4.30;;;5.20;98.20;;;;;;5049368;28;20196;-84
2022/03/10 12:59:33;;;;;;;5.78;4.03;;;5.40;96.30;;;;;;5054669;28;20215;-85
2022/03/10 13:02:16;;;;;;;5.82;4.30;;;5.30;95.20;;;;;;5065626;28;20191;-87
2022/03/10 13:04:57;;;;;;;6.63;3.78;;;5.20;95.90;;;;;;5058232;28;20184;-85
2022/03/10 13:07:39;;;;;;;4.88;3.65;;;5.10;93.90;;;;;;5048109;28;20255;-85